createdAt,value
2017-12-02T00:02:11.343Z,101617.75
2017-12-02T00:04:38.849Z,101627.81
2017-12-02T00:07:06.339Z,101628.14
2017-12-02T00:09:33.983Z,101632.75
2017-12-02T00:12:01.524Z,101631.47
2017-12-02T00:14:29.088Z,101633.70
2017-12-02T00:16:56.615Z,101635.72
2017-12-02T00:19:24.104Z,101636.08
2017-12-02T00:21:51.662Z,101631.92
2017-12-02T00:24:19.184Z,101633.67
2017-12-02T00:26:46.680Z,101636.41
2017-12-02T00:29:14.174Z,101633.86
2017-12-02T00:31:41.702Z,101639.58
2017-12-02T00:34:09.248Z,101642.52
2017-12-02T00:36:36.875Z,101649.05
2017-12-02T00:39:04.432Z,101651.09
2017-12-02T00:41:31.926Z,101651.66
2017-12-02T00:43:59.513Z,101653.17
2017-12-02T00:46:27.034Z,101663.59
2017-12-02T00:48:54.524Z,101662.44
2017-12-02T00:51:22.019Z,101663.91
2017-12-02T00:53:49.553Z,101660.81
2017-12-02T00:56:17.104Z,101665.06
2017-12-02T00:58:44.657Z,101665.25
2017-12-02T01:01:12.199Z,101661.86
2017-12-02T01:03:39.761Z,101668.76
2017-12-02T01:06:07.316Z,101667.11
2017-12-02T01:08:34.844Z,101663.00
2017-12-02T01:11:02.918Z,101668.48
2017-12-02T01:13:30.415Z,101670.57
2017-12-02T01:15:57.945Z,101670.03
2017-12-02T01:18:25.438Z,101670.48
2017-12-02T01:20:52.932Z,101672.56
2017-12-02T01:23:20.468Z,101679.39
2017-12-02T01:25:47.959Z,101688.02
2017-12-02T01:28:15.452Z,101687.30
2017-12-02T01:30:43.116Z,101687.39
2017-12-02T01:33:10.672Z,101692.33
2017-12-02T01:35:38.251Z,101689.83
2017-12-02T01:38:05.772Z,101697.63
2017-12-02T01:40:33.371Z,101696.53
2017-12-02T01:43:00.860Z,101697.87
2017-12-02T01:45:28.380Z,101707.70
2017-12-02T01:47:55.874Z,101705.77
2017-12-02T01:50:23.386Z,101708.13
2017-12-02T01:52:50.911Z,101706.19
2017-12-02T01:55:18.405Z,101705.81
2017-12-02T01:57:45.963Z,101712.42
2017-12-02T02:00:13.518Z,101715.30
2017-12-02T02:02:41.200Z,101714.05
2017-12-02T02:05:08.730Z,101717.18
2017-12-02T02:07:36.270Z,101711.37
2017-12-02T02:10:03.755Z,101720.42
2017-12-02T02:12:31.258Z,101717.56
2017-12-02T02:14:58.845Z,101719.13
2017-12-02T02:17:26.428Z,101731.19
2017-12-02T02:19:53.991Z,101730.77
2017-12-02T02:22:21.552Z,101723.70
2017-12-02T02:24:49.087Z,101727.39
2017-12-02T02:27:16.575Z,101729.48
2017-12-02T02:29:44.132Z,101741.39
2017-12-02T02:32:11.643Z,101742.88
2017-12-02T02:34:39.132Z,101749.89
2017-12-02T02:37:06.628Z,101745.31
2017-12-02T02:39:34.165Z,101748.14
2017-12-02T02:42:02.043Z,101751.59
2017-12-02T02:44:29.535Z,101759.22
2017-12-02T02:46:57.055Z,101758.71
2017-12-02T02:49:24.552Z,101754.69
2017-12-02T02:51:52.050Z,101757.83
2017-12-02T02:54:19.595Z,101756.45
2017-12-02T02:56:47.084Z,101758.20
2017-12-02T02:59:14.573Z,101766.58
2017-12-02T03:01:42.096Z,101766.02
2017-12-02T03:04:09.588Z,101765.59
2017-12-02T03:06:37.093Z,101765.60
2017-12-02T03:09:04.616Z,101767.22
2017-12-02T03:11:32.233Z,101769.86
2017-12-02T03:13:59.731Z,101772.02
2017-12-02T03:16:27.228Z,101778.86
2017-12-02T03:18:54.802Z,101778.63
2017-12-02T03:21:22.299Z,101786.20
2017-12-02T03:23:49.815Z,101782.65
2017-12-02T03:26:17.308Z,101784.58
2017-12-02T03:28:44.871Z,101782.05
2017-12-02T03:31:12.397Z,101786.34
2017-12-02T03:33:39.893Z,101790.59
2017-12-02T03:36:07.387Z,101791.70
2017-12-02T03:38:34.907Z,101792.67
2017-12-02T03:41:03.017Z,101800.90
2017-12-02T03:43:30.620Z,101797.42
2017-12-02T03:45:58.127Z,101801.50
2017-12-02T03:48:25.621Z,101804.96
2017-12-02T03:50:53.151Z,101809.08
2017-12-02T03:53:20.647Z,101812.81
2017-12-02T03:55:48.143Z,101812.73
2017-12-02T03:58:15.684Z,101818.92
2017-12-02T04:00:43.162Z,101811.80
2017-12-02T04:03:10.648Z,101819.16
2017-12-02T04:05:38.182Z,101821.92
2017-12-02T04:08:05.666Z,101823.27
2017-12-02T04:10:33.170Z,101822.34
2017-12-02T04:13:00.683Z,101824.52
2017-12-02T04:15:28.174Z,101825.11
2017-12-02T04:17:55.663Z,101830.97
2017-12-02T04:20:23.194Z,101831.90
2017-12-02T04:22:50.697Z,101835.73
2017-12-02T04:25:18.188Z,101832.39
2017-12-02T04:27:45.699Z,101834.19
2017-12-02T04:30:13.191Z,101828.70
2017-12-02T04:32:40.722Z,101834.03
2017-12-02T04:35:08.855Z,101835.20
2017-12-02T04:37:36.335Z,101830.27
2017-12-02T04:40:03.859Z,101838.72
2017-12-02T04:42:31.422Z,101838.72
2017-12-02T04:44:58.916Z,101841.06
2017-12-02T04:47:26.444Z,101840.73
2017-12-02T04:49:53.932Z,101841.06
2017-12-02T04:52:21.427Z,101846.92
2017-12-02T04:54:48.955Z,101849.02
2017-12-02T04:57:16.442Z,101857.61
2017-12-02T04:59:44.021Z,101853.27
2017-12-02T05:02:11.548Z,101854.61
2017-12-02T05:04:39.035Z,101856.73
2017-12-02T05:07:09.121Z,101858.49
2017-12-02T05:09:36.649Z,101864.72
2017-12-02T05:12:04.155Z,101857.02
2017-12-02T05:14:31.645Z,101856.22
2017-12-02T05:16:59.189Z,101860.09
2017-12-02T05:19:26.683Z,101860.56
2017-12-02T05:21:54.172Z,101869.24
2017-12-02T05:24:22.091Z,101870.19
2017-12-02T05:26:49.616Z,101866.58
2017-12-02T05:29:17.103Z,101877.80
2017-12-02T05:31:44.630Z,101873.48
2017-12-02T05:34:12.120Z,101878.15
2017-12-02T05:36:39.683Z,101879.17
2017-12-02T05:39:07.204Z,101880.88
2017-12-02T05:41:34.697Z,101877.11
2017-12-02T05:44:02.235Z,101876.73
2017-12-02T05:46:29.776Z,101882.62
2017-12-02T05:48:57.269Z,101882.52
2017-12-02T05:51:24.803Z,101881.40
2017-12-02T05:53:52.328Z,101886.81
2017-12-02T05:56:19.816Z,101884.77
2017-12-02T05:58:47.383Z,101883.05
2017-12-02T06:01:14.903Z,101888.63
2017-12-02T06:03:42.441Z,101889.35
2017-12-02T06:06:09.927Z,101899.03
2017-12-02T06:08:37.419Z,101897.41
2017-12-02T06:11:04.952Z,101903.72
2017-12-02T06:13:32.444Z,101902.19
2017-12-02T06:15:59.939Z,101899.76
2017-12-02T06:18:27.456Z,101900.03
2017-12-02T06:20:54.997Z,101913.59
2017-12-02T06:23:22.504Z,101915.15
2017-12-02T06:25:49.998Z,101914.56
2017-12-02T06:28:17.589Z,101919.16
2017-12-02T06:30:45.083Z,101916.29
2017-12-02T06:33:12.568Z,101914.95
2017-12-02T06:35:40.164Z,101917.23
2017-12-02T06:38:07.662Z,101926.67
2017-12-02T06:40:35.155Z,101920.45
2017-12-02T06:43:02.847Z,101926.42
2017-12-02T06:45:30.339Z,101929.69
2017-12-02T06:47:57.827Z,101930.75
2017-12-02T06:50:25.413Z,101930.88
2017-12-02T06:52:52.975Z,101940.62
2017-12-02T06:55:20.511Z,101934.17
2017-12-02T06:57:48.096Z,101938.39
2017-12-02T07:00:15.594Z,101929.58
2017-12-02T07:02:43.112Z,101928.02
2017-12-02T07:05:10.673Z,101936.55
2017-12-02T07:07:38.168Z,101934.83
2017-12-02T07:10:05.667Z,101939.45
2017-12-02T07:12:33.192Z,101943.00
2017-12-02T07:15:00.728Z,101946.94
2017-12-02T07:17:28.227Z,101948.97
2017-12-02T07:19:55.719Z,101955.78
2017-12-02T07:22:23.208Z,101953.66
2017-12-02T07:24:50.737Z,101954.78
2017-12-02T07:27:18.259Z,101961.25
2017-12-02T07:29:45.751Z,101964.41
2017-12-02T07:32:13.276Z,101963.95
2017-12-02T07:34:40.761Z,101965.86
2017-12-02T07:37:08.251Z,101965.74
2017-12-02T07:39:35.789Z,101961.91
2017-12-02T07:42:03.331Z,101965.80
2017-12-02T07:44:30.827Z,101968.25
2017-12-02T07:46:58.315Z,101972.57
2017-12-02T07:49:26.778Z,101969.02
2017-12-02T07:51:54.284Z,101971.81
2017-12-02T07:54:21.864Z,101977.17
2017-12-02T07:56:49.401Z,101981.86
2017-12-02T07:59:16.951Z,101984.55
2017-12-02T08:01:44.446Z,101983.23
2017-12-02T08:04:11.933Z,101989.99
2017-12-02T08:06:39.469Z,101988.55
2017-12-02T08:09:06.955Z,101990.30
2017-12-02T08:11:34.433Z,101991.42
2017-12-02T08:14:01.942Z,101995.05
2017-12-02T08:16:29.428Z,101993.45
2017-12-02T08:18:56.956Z,101995.06
2017-12-02T08:21:24.443Z,101996.88
2017-12-02T08:23:51.927Z,101997.06
2017-12-02T08:26:19.462Z,102008.44
2017-12-02T08:28:46.956Z,102005.88
2017-12-02T08:31:14.448Z,102009.05
2017-12-02T08:33:41.972Z,102013.78
2017-12-02T08:36:09.553Z,102022.06
2017-12-02T08:38:37.043Z,102014.27
2017-12-02T08:41:04.567Z,102018.11
2017-12-02T08:43:32.060Z,102015.99
2017-12-02T08:45:59.578Z,102018.20
2017-12-02T08:48:27.110Z,102017.77
2017-12-02T08:50:54.604Z,102024.33
2017-12-02T08:53:22.106Z,102024.64
2017-12-02T08:55:49.652Z,102020.14
2017-12-02T08:58:17.205Z,102025.31
2017-12-02T09:00:44.795Z,102028.86
2017-12-02T09:03:12.333Z,102033.52
2017-12-02T09:05:39.840Z,102025.98
2017-12-02T09:08:07.338Z,102025.30
2017-12-02T09:10:34.868Z,102028.30
2017-12-02T09:13:02.359Z,102028.52
2017-12-02T09:15:29.856Z,102033.45
2017-12-02T09:17:57.379Z,102039.15
2017-12-02T09:20:24.867Z,102038.09
2017-12-02T09:22:52.357Z,102041.36
2017-12-02T09:25:20.012Z,102050.61
2017-12-02T09:27:47.519Z,102052.20
2017-12-02T09:30:15.012Z,102056.11
2017-12-02T09:32:42.610Z,102050.30
2017-12-02T09:35:10.115Z,102052.39
2017-12-02T09:37:37.630Z,102048.56
2017-12-02T09:40:05.271Z,102046.86
2017-12-02T09:42:32.958Z,102048.45
2017-12-02T09:45:00.445Z,102045.92
2017-12-02T09:47:27.988Z,102048.99
2017-12-02T09:49:55.530Z,102043.21
2017-12-02T09:52:23.026Z,102042.48
2017-12-02T09:54:50.571Z,102046.03
2017-12-02T09:57:18.063Z,102050.06
2017-12-02T09:59:45.557Z,102048.95
2017-12-02T10:02:13.123Z,102053.17
2017-12-02T10:04:40.607Z,102046.95
2017-12-02T10:07:08.104Z,102050.97
2017-12-02T10:09:35.648Z,102052.81
2017-12-02T10:12:03.149Z,102050.46
2017-12-02T10:14:30.650Z,102052.22
2017-12-02T10:16:58.202Z,102052.36
2017-12-02T10:19:25.703Z,102049.79
2017-12-02T10:21:53.203Z,102048.53
2017-12-02T10:24:20.732Z,102043.31
2017-12-02T10:26:48.224Z,102047.25
2017-12-02T10:29:15.743Z,102045.48
2017-12-02T10:31:43.280Z,102041.20
2017-12-02T10:34:10.774Z,102039.38
2017-12-02T10:36:38.319Z,102040.41
2017-12-02T10:39:05.843Z,102032.41
2017-12-02T10:41:33.342Z,102036.13
2017-12-02T10:44:00.914Z,102035.77
2017-12-02T10:46:28.444Z,102035.12
2017-12-02T10:48:55.932Z,102032.68
2017-12-02T10:51:23.494Z,102031.19
2017-12-02T10:53:51.025Z,102030.25
2017-12-02T10:56:18.589Z,102034.84
2017-12-02T10:58:46.074Z,102036.70
2017-12-02T11:01:13.595Z,102032.94
2017-12-02T11:03:41.084Z,102036.50
2017-12-02T11:06:08.576Z,102026.73
2017-12-02T11:08:36.104Z,102036.66
2017-12-02T11:11:03.647Z,102037.48
2017-12-02T11:13:31.133Z,102039.52
2017-12-02T11:15:58.659Z,102036.00
2017-12-02T11:18:26.160Z,102038.88
2017-12-02T11:20:53.691Z,102042.34
2017-12-02T11:23:21.178Z,102042.39
2017-12-02T11:25:48.671Z,102041.66
2017-12-02T11:28:16.210Z,102042.63
2017-12-02T11:30:43.703Z,102044.09
2017-12-02T11:33:11.202Z,102039.25
2017-12-02T11:35:38.841Z,102043.47
2017-12-02T11:38:06.327Z,102041.08
2017-12-02T11:40:33.816Z,102035.31
2017-12-02T11:43:01.419Z,102036.98
2017-12-02T11:45:28.945Z,102039.82
2017-12-02T11:47:56.434Z,102040.36
2017-12-02T11:50:24.076Z,102037.73
2017-12-02T11:52:51.571Z,102035.14
2017-12-02T11:55:19.092Z,102033.52
2017-12-02T11:57:46.670Z,102036.15
2017-12-02T12:00:14.164Z,102035.31
2017-12-02T12:02:41.666Z,102028.83
2017-12-02T12:05:09.202Z,102032.84
2017-12-02T12:07:36.699Z,102033.67
2017-12-02T12:10:04.195Z,102031.91
2017-12-02T12:12:31.731Z,102026.80
2017-12-02T12:14:59.219Z,102031.49
2017-12-02T12:17:26.708Z,102032.12
2017-12-02T12:19:54.308Z,102025.28
2017-12-02T12:22:21.794Z,102027.28
2017-12-02T12:24:49.280Z,102024.53
2017-12-02T12:27:16.855Z,102024.87
2017-12-02T12:29:44.342Z,102021.11
2017-12-02T12:32:11.831Z,102023.85
2017-12-02T12:34:39.344Z,102024.74
2017-12-02T12:37:06.831Z,102029.28
2017-12-02T12:39:34.356Z,102023.73
2017-12-02T12:42:01.852Z,102026.89
2017-12-02T12:44:29.363Z,102030.77
2017-12-02T12:46:56.883Z,102029.19
2017-12-02T12:49:24.408Z,102034.09
2017-12-02T12:51:51.906Z,102025.25
2017-12-02T12:54:19.398Z,102036.59
2017-12-02T12:56:46.955Z,102038.39
2017-12-02T12:59:14.446Z,102035.88
2017-12-02T13:01:41.944Z,102031.85
2017-12-02T13:04:09.475Z,102031.08
2017-12-02T13:06:36.974Z,102029.55
2017-12-02T13:09:04.557Z,102026.83
2017-12-02T13:11:32.123Z,102027.16
2017-12-02T13:13:59.608Z,102020.02
2017-12-02T13:16:27.482Z,102029.05
2017-12-02T13:18:55.031Z,102032.39
2017-12-02T13:21:22.518Z,102032.44
2017-12-02T13:23:50.007Z,102028.38
2017-12-02T13:26:17.574Z,102025.84
2017-12-02T13:28:45.067Z,102030.46
2017-12-02T13:31:12.696Z,102029.23
2017-12-02T13:33:40.222Z,102022.34
2017-12-02T13:36:07.749Z,102022.75
2017-12-02T13:38:35.302Z,102026.03
2017-12-02T13:41:02.815Z,102028.39
2017-12-02T13:43:30.332Z,102020.16
2017-12-02T13:45:57.829Z,102018.07
2017-12-02T13:48:25.355Z,102017.83
2017-12-02T13:50:52.855Z,102012.52
2017-12-02T13:53:20.406Z,102011.30
2017-12-02T13:55:47.932Z,102011.40
2017-12-02T13:58:15.427Z,102007.55
2017-12-02T14:00:42.921Z,102009.25
2017-12-02T14:03:10.446Z,102014.04
2017-12-02T14:05:37.935Z,102010.30
2017-12-02T14:08:05.428Z,102016.37
2017-12-02T14:10:33.018Z,102016.98
2017-12-02T14:13:00.529Z,102025.04
2017-12-02T14:15:28.021Z,102027.07
2017-12-02T14:17:55.555Z,102023.33
2017-12-02T14:20:23.052Z,102030.41
2017-12-02T14:22:50.535Z,102039.47
2017-12-02T14:25:18.175Z,102034.02
2017-12-02T14:27:45.685Z,102040.16
2017-12-02T14:30:13.181Z,102040.63
2017-12-02T14:32:40.844Z,102040.68
2017-12-02T14:35:08.332Z,102033.03
2017-12-02T14:37:35.835Z,102037.62
2017-12-02T14:40:03.380Z,102038.35
2017-12-02T14:42:30.875Z,102035.06
2017-12-02T14:44:58.372Z,102027.99
2017-12-02T14:47:25.935Z,102037.66
2017-12-02T14:49:53.427Z,102043.02
2017-12-02T14:52:20.928Z,102046.81
2017-12-02T14:54:48.460Z,102047.74
2017-12-02T14:57:15.955Z,102053.02
2017-12-02T14:59:43.446Z,102053.25
2017-12-02T15:02:11.190Z,102055.52
2017-12-02T15:04:38.663Z,102061.72
2017-12-02T15:07:06.192Z,102059.48
2017-12-02T15:09:33.827Z,102066.42
2017-12-02T15:12:01.451Z,102070.92
2017-12-02T15:14:28.950Z,102076.88
2017-12-02T15:16:56.468Z,102076.69
2017-12-02T15:19:23.960Z,102083.20
2017-12-02T15:21:51.522Z,102081.72
2017-12-02T15:24:19.198Z,102087.17
2017-12-02T15:26:46.744Z,102077.41
2017-12-02T15:29:14.301Z,102079.80
2017-12-02T15:31:41.879Z,102080.20
2017-12-02T15:34:09.435Z,102082.30
2017-12-02T15:36:36.935Z,102078.63
2017-12-02T15:39:04.483Z,102089.00
2017-12-02T15:41:31.982Z,102090.63
2017-12-02T15:43:59.481Z,102087.71
2017-12-02T15:46:27.116Z,102090.45
2017-12-02T15:48:54.608Z,102094.22
2017-12-02T15:51:22.104Z,102093.39
2017-12-02T15:53:49.705Z,102089.39
2017-12-02T15:56:17.252Z,102088.66
2017-12-02T15:58:44.799Z,102087.50
2017-12-02T16:01:12.332Z,102090.50
2017-12-02T16:03:39.829Z,102092.69
2017-12-02T16:06:07.321Z,102095.88
2017-12-02T16:08:34.851Z,102092.72
2017-12-02T16:11:02.670Z,102094.34
2017-12-02T16:13:30.263Z,102101.35
2017-12-02T16:15:57.826Z,102101.13
2017-12-02T16:18:25.320Z,102104.90
2017-12-02T16:20:52.807Z,102102.44
2017-12-02T16:23:20.346Z,102101.47
2017-12-02T16:25:47.839Z,102102.72
2017-12-02T16:28:15.333Z,102105.13
2017-12-02T16:30:42.900Z,102102.52
2017-12-02T16:33:10.459Z,102106.74
2017-12-02T16:35:37.947Z,102110.21
2017-12-02T16:38:05.517Z,102115.59
2017-12-02T16:40:33.029Z,102111.37
2017-12-02T16:43:00.568Z,102110.63
2017-12-02T16:45:28.150Z,102108.61
2017-12-02T16:47:55.640Z,102109.28
2017-12-02T16:50:23.178Z,102107.87
2017-12-02T16:52:50.674Z,102118.33
2017-12-02T16:55:18.162Z,102118.66
2017-12-02T16:57:45.689Z,102113.72
2017-12-02T17:00:13.243Z,102118.33
2017-12-02T17:02:40.843Z,102112.60
2017-12-02T17:05:08.383Z,102110.95
2017-12-02T17:07:35.977Z,102112.80
2017-12-02T17:10:03.462Z,102110.03
2017-12-02T17:12:31.014Z,102108.77
2017-12-02T17:14:58.589Z,102116.96
2017-12-02T17:17:26.090Z,102117.23
2017-12-02T17:19:53.632Z,102115.26
2017-12-02T17:22:21.133Z,102115.98
2017-12-02T17:24:48.619Z,102113.83
2017-12-02T17:27:16.145Z,102111.90
2017-12-02T17:29:43.644Z,102110.64
2017-12-02T17:32:11.137Z,102112.00
2017-12-02T17:34:38.704Z,102110.15
2017-12-02T17:37:06.199Z,102107.22
2017-12-02T17:39:33.711Z,102112.91
2017-12-02T17:42:01.279Z,102112.01
2017-12-02T17:44:28.784Z,102107.62
2017-12-02T17:46:56.323Z,102104.94
2017-12-02T17:49:23.856Z,102106.03
2017-12-02T17:51:51.344Z,102101.22
2017-12-02T17:54:18.889Z,102103.98
2017-12-02T17:56:46.412Z,102101.24
2017-12-02T17:59:13.896Z,102100.69
2017-12-02T18:01:41.389Z,102106.29
2017-12-02T18:04:08.915Z,102100.66
2017-12-02T18:06:36.465Z,102102.66
2017-12-02T18:09:03.960Z,102101.81
2017-12-02T18:11:31.484Z,102098.42
2017-12-02T18:13:58.987Z,102096.59
2017-12-02T18:16:26.515Z,102100.94
2017-12-02T18:18:54.004Z,102097.97
2017-12-02T18:21:21.488Z,102099.45
2017-12-02T18:23:49.089Z,102094.72
2017-12-02T18:26:16.585Z,102098.80
2017-12-02T18:28:44.072Z,102101.94
2017-12-02T18:31:11.603Z,102111.00
2017-12-02T18:33:39.089Z,102107.84
2017-12-02T18:36:06.577Z,102107.22
2017-12-02T18:38:34.114Z,102101.69
2017-12-02T18:41:01.607Z,102101.84
2017-12-02T18:43:29.099Z,102108.37
2017-12-02T18:45:56.632Z,102109.04
2017-12-02T18:48:24.173Z,102107.70
2017-12-02T18:50:51.667Z,102109.67
2017-12-02T18:53:19.393Z,102110.95
2017-12-02T18:55:46.951Z,102112.22
2017-12-02T18:58:14.438Z,102116.25
2017-12-02T19:00:41.995Z,102114.57
2017-12-02T19:03:09.481Z,102110.22
2017-12-02T19:05:36.983Z,102107.46
2017-12-02T19:08:04.569Z,102116.05
2017-12-02T19:10:32.058Z,102117.75
2017-12-02T19:12:59.548Z,102110.98
2017-12-02T19:15:27.088Z,102117.33
2017-12-02T19:17:54.637Z,102116.12
2017-12-02T19:20:22.237Z,102117.90
2017-12-02T19:22:49.776Z,102110.71
2017-12-02T19:25:17.264Z,102115.52
2017-12-02T19:27:44.755Z,102118.84
2017-12-02T19:30:12.378Z,102117.43
2017-12-02T19:32:39.876Z,102117.36
2017-12-02T19:35:07.362Z,102111.25
2017-12-02T19:37:34.888Z,102119.78
2017-12-02T19:40:02.574Z,102120.70
2017-12-02T19:42:30.091Z,102119.13
2017-12-02T19:44:57.619Z,102115.06
2017-12-02T19:47:25.114Z,102114.91
2017-12-02T19:49:52.604Z,102119.37
2017-12-02T19:52:20.290Z,102126.69
2017-12-02T19:54:47.825Z,102124.22
2017-12-02T19:57:15.333Z,102121.88
2017-12-02T19:59:42.884Z,102113.44
2017-12-02T20:02:10.425Z,102115.41
2017-12-02T20:04:37.910Z,102108.00
2017-12-02T20:07:05.446Z,102104.77
2017-12-02T20:09:32.939Z,102105.60
2017-12-02T20:12:00.436Z,102108.77
2017-12-02T20:14:27.978Z,102104.08
2017-12-02T20:16:55.475Z,102099.23
2017-12-02T20:19:22.970Z,102101.69
2017-12-02T20:21:50.490Z,102097.89
2017-12-02T20:24:17.978Z,102093.75
2017-12-02T20:26:45.608Z,102099.59
2017-12-02T20:29:13.163Z,102094.24
2017-12-02T20:31:40.651Z,102094.57
2017-12-02T20:34:08.186Z,102098.58
2017-12-02T20:36:35.718Z,102093.86
2017-12-02T20:39:03.217Z,102093.13
2017-12-02T20:41:30.710Z,102086.75
2017-12-02T20:43:58.247Z,102090.20
2017-12-02T20:46:25.775Z,102088.28
2017-12-02T20:48:53.280Z,102091.67
2017-12-02T20:51:21.493Z,102092.68
2017-12-02T20:53:48.981Z,102096.03
2017-12-02T20:56:16.476Z,102094.78
2017-12-02T20:58:49.430Z,102094.22
2017-12-02T21:01:17.462Z,102095.27
2017-12-02T21:03:47.511Z,102103.86
2017-12-02T21:06:16.588Z,102103.04
2017-12-02T21:08:46.640Z,102099.05
2017-12-02T21:11:14.388Z,102100.38
2017-12-02T21:13:41.948Z,102097.16
2017-12-02T21:16:09.484Z,102103.06
2017-12-02T21:18:37.055Z,102096.80
2017-12-02T21:21:04.554Z,102096.96
2017-12-02T21:23:32.095Z,102099.06
2017-12-02T21:25:59.590Z,102099.05
2017-12-02T21:28:27.085Z,102095.13
2017-12-02T21:30:54.614Z,102098.79
2017-12-02T21:33:22.198Z,102100.75
2017-12-02T21:35:49.694Z,102097.50
2017-12-02T21:38:17.330Z,102096.80
2017-12-02T21:40:44.820Z,102099.96
2017-12-02T21:43:12.311Z,102094.52
2017-12-02T21:45:39.826Z,102092.03
2017-12-02T21:48:07.324Z,102099.64
2017-12-02T21:50:34.834Z,102093.54
2017-12-02T21:53:02.361Z,102094.67
2017-12-02T21:55:29.927Z,102099.30
2017-12-02T21:57:57.415Z,102097.04
2017-12-02T22:00:24.961Z,102098.09
2017-12-02T22:02:52.502Z,102104.65
2017-12-02T22:05:20.011Z,102103.74
2017-12-02T22:07:47.548Z,102100.36
2017-12-02T22:10:15.096Z,102102.27
2017-12-02T22:12:42.579Z,102100.78
2017-12-02T22:15:10.108Z,102086.77
2017-12-02T22:17:37.776Z,102083.19
2017-12-02T22:20:05.263Z,102084.19
2017-12-02T22:22:32.980Z,102078.27
2017-12-02T22:25:00.476Z,102081.02
2017-12-02T22:27:27.974Z,102085.41
2017-12-02T22:29:55.508Z,102083.70
2017-12-02T22:32:22.994Z,102086.59
2017-12-02T22:34:50.485Z,102084.63
2017-12-02T22:37:18.013Z,102089.69
2017-12-02T22:39:45.501Z,102087.64
2017-12-02T22:42:13.060Z,102096.52
2017-12-02T22:44:40.610Z,102089.62
2017-12-02T22:47:08.101Z,102092.72
2017-12-02T22:49:35.722Z,102087.00
2017-12-02T22:52:03.215Z,102086.95
2017-12-02T22:54:30.720Z,102081.94
2017-12-02T22:56:58.242Z,102074.95
2017-12-02T22:59:25.873Z,102074.86
2017-12-02T23:01:53.359Z,102076.96
2017-12-02T23:04:20.863Z,102065.81
2017-12-02T23:06:48.395Z,102069.59
2017-12-02T23:09:15.887Z,102070.31
2017-12-02T23:11:43.385Z,102065.53
2017-12-02T23:14:10.909Z,102061.75
2017-12-02T23:16:38.414Z,102058.64
2017-12-02T23:19:05.898Z,102060.36
2017-12-02T23:21:33.432Z,102054.57
2017-12-02T23:24:00.955Z,102051.19
2017-12-02T23:26:28.448Z,102047.78
2017-12-02T23:28:55.975Z,102046.65
2017-12-02T23:31:23.463Z,102039.61
2017-12-02T23:33:50.952Z,102043.91
2017-12-02T23:36:18.609Z,102042.61
2017-12-02T23:38:46.108Z,102047.50
2017-12-02T23:41:13.596Z,102041.23
2017-12-02T23:43:41.134Z,102041.01
2017-12-02T23:46:08.630Z,102031.62
2017-12-02T23:48:36.135Z,102030.37
2017-12-02T23:51:03.658Z,102026.77
2017-12-02T23:53:31.385Z,102028.00
2017-12-02T23:55:58.909Z,102028.44
2017-12-02T23:58:26.436Z,102028.75
